createdAt,value
2023-02-13T00:00:22.191Z,5.72
2023-02-13T00:02:48.909Z,5.34
2023-02-13T00:05:15.821Z,5.26
2023-02-13T00:07:42.561Z,5.23
2023-02-13T00:10:09.710Z,5.31
2023-02-13T00:12:36.676Z,5.60
2023-02-13T00:15:04.660Z,5.79
2023-02-13T00:17:31.720Z,5.27
2023-02-13T00:19:58.490Z,5.49
2023-02-13T00:22:25.204Z,5.22
2023-02-13T00:24:51.857Z,5.39
2023-02-13T00:27:18.914Z,5.27
2023-02-13T00:29:45.882Z,5.13
2023-02-13T00:32:12.741Z,5.43
2023-02-13T00:34:39.630Z,5.45
2023-02-13T00:37:06.333Z,5.30
2023-02-13T00:39:33.085Z,5.31
2023-02-13T00:41:59.820Z,5.21
2023-02-13T00:44:26.569Z,5.23
2023-02-13T00:46:53.205Z,5.31
2023-02-13T00:49:19.931Z,5.25
2023-02-13T00:51:46.608Z,5.47
2023-02-13T00:54:13.333Z,5.04
2023-02-13T00:56:40.065Z,5.12
2023-02-13T00:59:06.735Z,5.47
2023-02-13T01:01:33.525Z,5.10
2023-02-13T01:04:00.347Z,5.13
2023-02-13T01:06:27.226Z,4.92
2023-02-13T01:08:53.912Z,4.86
2023-02-13T01:11:20.681Z,4.92
2023-02-13T01:13:47.359Z,4.80
2023-02-13T01:16:16.063Z,4.60
2023-02-13T01:18:42.847Z,4.84
2023-02-13T01:21:16.679Z,4.82
2023-02-13T01:23:43.558Z,4.92
2023-02-13T01:26:20.374Z,4.83
2023-02-13T01:28:47.076Z,4.83
2023-02-13T01:31:14.263Z,5.13
2023-02-13T01:33:41.054Z,4.69
2023-02-13T01:36:10.052Z,4.85
2023-02-13T01:38:36.855Z,4.75
2023-02-13T01:41:04.027Z,4.83
2023-02-13T01:43:56.754Z,5.05
2023-02-13T01:46:37.239Z,5.02
2023-02-13T01:49:12.958Z,4.66
2023-02-13T01:51:40.914Z,4.69
2023-02-13T01:54:19.444Z,4.65
2023-02-13T01:56:54.166Z,4.69
2023-02-13T01:59:28.882Z,4.66
2023-02-13T02:01:57.968Z,4.62
2023-02-13T02:04:34.042Z,4.81
2023-02-13T02:07:10.773Z,4.57
2023-02-13T02:09:41.271Z,4.46
2023-02-13T02:12:17.855Z,4.85
2023-02-13T02:14:45.491Z,4.35
2023-02-13T02:17:12.568Z,4.80
2023-02-13T02:19:50.256Z,4.60
2023-02-13T02:22:16.870Z,4.93
2023-02-13T02:25:10.055Z,4.93
2023-02-13T02:27:48.766Z,5.00
2023-02-13T02:30:41.462Z,4.99
2023-02-13T02:33:08.636Z,4.93
2023-02-13T02:36:10.707Z,4.91
2023-02-13T02:39:02.248Z,4.39
2023-02-13T02:42:14.746Z,4.87
2023-02-13T02:45:02.340Z,4.89
2023-02-13T02:48:06.084Z,4.56
2023-02-13T02:50:59.158Z,4.88
2023-02-13T02:53:39.026Z,4.91
2023-02-13T02:56:16.260Z,4.65
2023-02-13T02:59:44.478Z,4.89
2023-02-13T03:02:30.904Z,4.50
2023-02-13T03:05:19.417Z,4.53
2023-02-13T03:07:46.207Z,4.81
2023-02-13T03:10:38.857Z,4.74
2023-02-13T03:13:23.468Z,4.63
2023-02-13T03:16:11.813Z,4.56
2023-02-13T03:18:59.742Z,4.73
2023-02-13T03:22:08.717Z,4.77
2023-02-13T03:25:04.512Z,4.78
2023-02-13T03:27:58.945Z,4.75
2023-02-13T03:30:34.882Z,4.69
2023-02-13T03:33:26.405Z,4.69
2023-02-13T03:36:53.516Z,4.64
2023-02-13T03:39:38.797Z,4.76
2023-02-13T03:42:30.857Z,4.50
2023-02-13T03:45:28.130Z,4.18
2023-02-13T03:47:59.060Z,4.31
2023-02-13T03:50:28.168Z,4.13
2023-02-13T03:53:01.967Z,4.27
2023-02-13T03:55:54.442Z,4.41
2023-02-13T03:58:43.417Z,4.23
2023-02-13T04:01:15.150Z,4.57
2023-02-13T04:04:14.207Z,4.42
2023-02-13T04:06:49.391Z,4.52
2023-02-13T04:09:17.223Z,4.20
2023-02-13T04:11:56.400Z,4.03
2023-02-13T04:14:34.188Z,4.38
2023-02-13T04:17:12.700Z,4.18
2023-02-13T04:19:39.722Z,4.31
2023-02-13T04:22:06.553Z,4.30
2023-02-13T04:24:33.339Z,3.97
2023-02-13T04:27:00.164Z,3.90
2023-02-13T04:29:27.430Z,4.03
2023-02-13T04:31:54.256Z,3.93
2023-02-13T04:34:21.184Z,4.02
2023-02-13T04:36:48.092Z,4.09
2023-02-13T04:39:14.818Z,4.26
2023-02-13T04:41:41.553Z,4.33
2023-02-13T04:44:08.379Z,4.23
2023-02-13T04:46:35.139Z,4.37
2023-02-13T04:49:01.882Z,3.96
2023-02-13T04:51:28.667Z,4.21
2023-02-13T04:53:55.417Z,4.17
2023-02-13T04:56:22.156Z,4.06
2023-02-13T04:58:48.879Z,3.90
2023-02-13T05:01:17.189Z,4.18
2023-02-13T05:03:43.922Z,3.87
2023-02-13T05:06:10.846Z,4.28
2023-02-13T05:08:37.775Z,3.87
2023-02-13T05:11:04.706Z,4.08
2023-02-13T05:13:31.609Z,3.97
2023-02-13T05:15:58.378Z,3.84
2023-02-13T05:18:25.207Z,3.60
2023-02-13T05:21:10.312Z,4.09
2023-02-13T05:23:37.621Z,4.04
2023-02-13T05:26:04.542Z,3.78
2023-02-13T05:28:49.698Z,3.69
2023-02-13T05:31:16.710Z,3.74
2023-02-13T05:33:43.601Z,4.04
2023-02-13T05:36:10.327Z,3.94
2023-02-13T05:38:37.033Z,3.54
2023-02-13T05:41:03.858Z,3.43
2023-02-13T05:43:30.745Z,3.69
2023-02-13T05:46:05.686Z,3.55
2023-02-13T05:48:32.813Z,3.54
2023-02-13T05:50:59.778Z,3.81
2023-02-13T05:53:26.930Z,3.54
2023-02-13T05:55:54.799Z,3.34
2023-02-13T05:58:21.964Z,3.52
2023-02-13T06:00:48.687Z,3.34
2023-02-13T06:03:15.470Z,3.30
2023-02-13T06:05:42.180Z,3.50
2023-02-13T06:08:09.024Z,3.11
2023-02-13T06:10:35.687Z,3.09
2023-02-13T06:13:02.419Z,3.22
2023-02-13T06:15:29.794Z,3.14
2023-02-13T06:17:56.531Z,3.36
2023-02-13T06:20:23.411Z,3.13
2023-02-13T06:22:51.847Z,3.54
2023-02-13T06:25:19.518Z,3.58
2023-02-13T06:27:46.508Z,3.30
2023-02-13T06:30:14.122Z,3.56
2023-02-13T06:32:40.807Z,3.07
2023-02-13T06:35:08.255Z,3.34
2023-02-13T06:37:35.632Z,3.34
2023-02-13T06:40:02.402Z,3.25
2023-02-13T06:42:29.228Z,3.12
2023-02-13T06:44:55.968Z,3.27
2023-02-13T06:47:22.635Z,3.20
2023-02-13T06:49:49.354Z,3.18
2023-02-13T06:52:16.089Z,3.41
2023-02-13T06:54:47.593Z,3.28
2023-02-13T06:57:15.717Z,3.42
2023-02-13T06:59:42.853Z,3.62
2023-02-13T07:02:13.593Z,3.37
2023-02-13T07:04:40.570Z,3.40
2023-02-13T07:07:07.540Z,3.41
2023-02-13T07:09:34.239Z,3.45
2023-02-13T07:12:07.801Z,3.45
2023-02-13T07:14:34.497Z,3.26
2023-02-13T07:17:01.225Z,3.15
2023-02-13T07:19:27.910Z,3.24
2023-02-13T07:21:54.601Z,3.37
2023-02-13T07:24:21.291Z,3.28
2023-02-13T07:26:47.974Z,3.25
2023-02-13T07:29:14.669Z,3.03
2023-02-13T07:31:41.396Z,3.21
2023-02-13T07:34:08.532Z,3.21
2023-02-13T07:36:35.273Z,3.16
2023-02-13T07:39:02.039Z,3.11
2023-02-13T07:41:28.711Z,3.28
2023-02-13T07:43:55.412Z,3.28
2023-02-13T07:46:22.302Z,3.04
2023-02-13T07:48:49.052Z,3.18
2023-02-13T07:51:16.551Z,3.26
2023-02-13T07:53:43.476Z,3.03
2023-02-13T07:56:11.022Z,3.09
2023-02-13T07:58:40.637Z,3.45
2023-02-13T08:01:09.140Z,3.42
2023-02-13T08:03:36.555Z,3.14
2023-02-13T08:06:04.180Z,3.12
2023-02-13T08:08:31.221Z,3.59
2023-02-13T08:11:21.936Z,3.32
2023-02-13T08:13:48.633Z,3.25
2023-02-13T08:16:15.379Z,3.41
2023-02-13T08:18:42.341Z,3.48
2023-02-13T08:21:09.155Z,3.48
2023-02-13T08:23:35.984Z,3.87
2023-02-13T08:26:03.115Z,4.49
2023-02-13T08:28:30.484Z,4.57
2023-02-13T08:30:57.231Z,4.88
2023-02-13T08:33:23.944Z,5.01
2023-02-13T08:35:50.598Z,4.75
2023-02-13T08:38:17.390Z,4.61
2023-02-13T08:40:44.109Z,4.91
2023-02-13T08:43:10.808Z,4.92
2023-02-13T08:45:37.698Z,5.40
2023-02-13T08:48:04.534Z,5.85
2023-02-13T08:50:31.869Z,6.17
2023-02-13T08:52:59.649Z,5.86
2023-02-13T08:55:27.589Z,6.34
2023-02-13T08:57:54.657Z,6.44
2023-02-13T09:00:21.701Z,6.71
2023-02-13T09:02:51.449Z,6.48
2023-02-13T09:05:18.244Z,6.68
2023-02-13T09:07:45.272Z,6.61
2023-02-13T09:10:12.319Z,6.65
2023-02-13T09:12:39.023Z,6.84
2023-02-13T09:15:06.301Z,6.63
2023-02-13T09:17:33.107Z,6.40
2023-02-13T09:19:59.826Z,6.01
2023-02-13T09:22:26.735Z,5.83
2023-02-13T09:24:53.465Z,6.05
2023-02-13T09:27:20.281Z,6.29
2023-02-13T09:29:47.381Z,5.95
2023-02-13T09:32:14.293Z,6.01
2023-02-13T09:34:41.092Z,5.97
2023-02-13T09:37:07.847Z,5.74
2023-02-13T09:39:34.591Z,6.03
2023-02-13T09:42:02.343Z,5.99
2023-02-13T09:44:42.241Z,5.93
2023-02-13T09:47:15.735Z,6.06
2023-02-13T09:49:53.051Z,6.11
2023-02-13T09:52:19.947Z,6.36
2023-02-13T09:54:46.609Z,5.87
2023-02-13T09:57:35.008Z,6.51
2023-02-13T10:00:15.712Z,6.66
2023-02-13T10:02:42.365Z,6.59
2023-02-13T10:05:37.004Z,6.75
2023-02-13T10:08:25.826Z,6.53
2023-02-13T10:10:58.397Z,6.58
2023-02-13T10:13:42.501Z,6.53
2023-02-13T10:16:22.928Z,6.52
2023-02-13T10:18:55.902Z,6.42
2023-02-13T10:21:29.967Z,6.86
2023-02-13T10:23:59.587Z,6.93
2023-02-13T10:26:42.802Z,6.65
2023-02-13T10:30:03.056Z,6.38
2023-02-13T10:32:40.727Z,6.50
2023-02-13T10:35:29.103Z,6.83
2023-02-13T10:38:01.507Z,7.00
2023-02-13T10:40:51.602Z,6.15
2023-02-13T10:43:28.118Z,5.75
2023-02-13T10:46:25.965Z,6.75
2023-02-13T10:49:28.349Z,7.01
2023-02-13T10:52:17.927Z,7.20
2023-02-13T10:55:12.396Z,7.43
2023-02-13T10:57:52.132Z,6.94
2023-02-13T11:00:25.990Z,7.47
2023-02-13T11:02:53.403Z,7.29
2023-02-13T11:05:30.317Z,7.49
2023-02-13T11:07:59.698Z,7.36
2023-02-13T11:10:27.926Z,7.38
2023-02-13T11:12:56.504Z,7.58
2023-02-13T11:15:30.978Z,7.74
2023-02-13T11:18:12.190Z,7.22
2023-02-13T11:20:47.234Z,7.10
2023-02-13T11:23:32.417Z,7.81
2023-02-13T11:26:05.222Z,7.89
2023-02-13T11:28:38.548Z,7.39
2023-02-13T11:31:23.305Z,7.49
2023-02-13T11:33:51.407Z,7.59
2023-02-13T11:36:26.340Z,7.33
2023-02-13T11:39:01.410Z,7.63
2023-02-13T11:41:29.875Z,7.22
2023-02-13T11:44:04.241Z,7.68
2023-02-13T11:46:49.208Z,7.63
2023-02-13T11:49:24.758Z,7.86
2023-02-13T11:52:05.425Z,7.83
2023-02-13T11:54:37.347Z,7.90
2023-02-13T11:57:21.645Z,8.12
2023-02-13T11:59:56.278Z,7.87
2023-02-13T12:02:29.006Z,8.21
2023-02-13T12:05:16.682Z,8.25
2023-02-13T12:07:44.981Z,7.97
2023-02-13T12:10:37.204Z,8.40
2023-02-13T12:13:15.144Z,8.30
2023-02-13T12:15:43.567Z,8.10
2023-02-13T12:18:13.913Z,7.98
2023-02-13T12:21:02.435Z,8.57
2023-02-13T12:23:44.400Z,8.59
2023-02-13T12:26:23.028Z,8.48
2023-02-13T12:29:02.943Z,8.89
2023-02-13T12:31:58.134Z,9.06
2023-02-13T12:35:02.160Z,8.69
2023-02-13T12:37:34.763Z,8.82
2023-02-13T12:40:42.803Z,8.95
2023-02-13T12:43:36.016Z,8.86
2023-02-13T12:46:39.837Z,9.30
2023-02-13T12:49:25.437Z,9.04
2023-02-13T12:52:28.831Z,8.79
2023-02-13T12:55:17.358Z,9.04
2023-02-13T12:57:53.380Z,8.74
2023-02-13T13:00:41.968Z,8.54
2023-02-13T13:03:26.422Z,8.77
2023-02-13T13:06:27.032Z,9.13
2023-02-13T13:09:17.286Z,9.03
2023-02-13T13:11:43.918Z,9.21
2023-02-13T13:14:32.215Z,9.35
2023-02-13T13:17:36.417Z,9.29
2023-02-13T13:20:25.486Z,9.22
2023-02-13T13:23:09.336Z,9.02
2023-02-13T13:26:13.547Z,9.27
2023-02-13T13:28:45.930Z,9.28
2023-02-13T13:31:13.866Z,9.17
2023-02-13T13:33:43.979Z,9.08
2023-02-13T13:36:44.488Z,8.71
2023-02-13T13:39:26.755Z,9.15
2023-02-13T13:41:55.190Z,9.18
2023-02-13T13:44:40.416Z,9.07
2023-02-13T13:47:25.388Z,8.85
2023-02-13T13:49:58.092Z,9.02
2023-02-13T13:52:38.194Z,8.93
2023-02-13T13:55:05.792Z,8.89
2023-02-13T13:58:00.864Z,9.06
2023-02-13T14:00:30.687Z,8.71
2023-02-13T14:02:58.260Z,9.02
2023-02-13T14:05:36.190Z,8.95
2023-02-13T14:08:24.010Z,9.34
2023-02-13T14:10:50.731Z,9.22
2023-02-13T14:13:31.230Z,8.89
2023-02-13T14:16:01.391Z,9.06
2023-02-13T14:18:32.832Z,8.97
2023-02-13T14:21:02.465Z,9.25
2023-02-13T14:23:53.182Z,9.16
2023-02-13T14:26:30.352Z,9.10
2023-02-13T14:29:03.844Z,8.88
2023-02-13T14:31:44.996Z,8.71
2023-02-13T14:34:11.685Z,9.09
2023-02-13T14:36:41.517Z,8.83
2023-02-13T14:39:30.992Z,9.11
2023-02-13T14:42:01.403Z,8.87
2023-02-13T14:44:48.382Z,9.03
2023-02-13T14:47:20.810Z,8.92
2023-02-13T14:49:49.902Z,8.76
2023-02-13T14:52:27.574Z,8.68
2023-02-13T14:54:56.413Z,9.05
2023-02-13T14:57:29.832Z,8.98
2023-02-13T15:00:04.394Z,9.00
2023-02-13T15:02:51.548Z,8.95
2023-02-13T15:05:22.797Z,8.64
2023-02-13T15:08:26.964Z,9.02
2023-02-13T15:10:56.111Z,8.46
2023-02-13T15:13:24.860Z,8.96
2023-02-13T15:15:58.817Z,8.71
2023-02-13T15:18:29.996Z,8.79
2023-02-13T15:21:00.757Z,8.66
2023-02-13T15:23:36.684Z,8.71
2023-02-13T15:26:07.651Z,8.14
2023-02-13T15:28:36.214Z,8.77
2023-02-13T15:31:06.995Z,8.85
2023-02-13T15:33:48.811Z,8.59
2023-02-13T15:36:25.582Z,8.35
2023-02-13T15:39:11.521Z,8.60
2023-02-13T15:41:45.031Z,8.19
2023-02-13T15:44:22.496Z,8.43
2023-02-13T15:46:54.110Z,8.07
2023-02-13T15:49:26.964Z,7.97
2023-02-13T15:52:06.178Z,8.42
2023-02-13T15:54:37.926Z,8.58
2023-02-13T15:57:07.304Z,8.28
2023-02-13T15:59:37.596Z,8.27
2023-02-13T16:02:12.023Z,8.48
2023-02-13T16:04:41.006Z,8.40
2023-02-13T16:07:12.184Z,7.91
2023-02-13T16:09:39.053Z,8.03
2023-02-13T16:12:24.175Z,8.13
2023-02-13T16:14:57.226Z,8.14
2023-02-13T16:17:32.831Z,8.28
2023-02-13T16:20:08.426Z,8.17
2023-02-13T16:22:39.007Z,8.17
2023-02-13T16:25:25.791Z,8.07
2023-02-13T16:27:59.819Z,7.95
2023-02-13T16:30:48.257Z,8.04
2023-02-13T16:33:14.927Z,8.03
2023-02-13T16:35:45.503Z,7.91
2023-02-13T16:38:32.201Z,7.78
2023-02-13T16:41:06.050Z,7.88
2023-02-13T16:43:57.203Z,7.67
2023-02-13T16:46:32.135Z,7.66
2023-02-13T16:49:01.638Z,7.62
2023-02-13T16:51:40.487Z,7.57
2023-02-13T16:54:28.662Z,7.56
2023-02-13T16:57:14.950Z,7.29
2023-02-13T16:59:48.168Z,7.34
2023-02-13T17:02:20.816Z,7.39
2023-02-13T17:05:09.496Z,6.96
2023-02-13T17:07:51.501Z,6.95
2023-02-13T17:10:31.579Z,7.22
2023-02-13T17:13:19.253Z,6.61
2023-02-13T17:15:51.866Z,6.90
2023-02-13T17:18:18.598Z,6.60
2023-02-13T17:20:49.695Z,6.47
2023-02-13T17:23:18.886Z,6.59
2023-02-13T17:25:55.087Z,6.35
2023-02-13T17:28:24.438Z,6.29
2023-02-13T17:30:52.991Z,6.77
2023-02-13T17:33:25.256Z,6.44
2023-02-13T17:35:52.938Z,6.62
2023-02-13T17:38:22.382Z,6.55
2023-02-13T17:40:52.251Z,6.13
2023-02-13T17:43:20.793Z,6.57
2023-02-13T17:45:49.779Z,6.47
2023-02-13T17:48:19.675Z,6.30
2023-02-13T17:50:47.215Z,6.22
2023-02-13T17:53:23.189Z,6.33
2023-02-13T17:55:50.603Z,6.13
2023-02-13T17:58:17.392Z,6.22
2023-02-13T18:00:44.507Z,6.38
2023-02-13T18:03:12.796Z,6.40
2023-02-13T18:05:40.231Z,6.22
2023-02-13T18:08:07.255Z,5.67
2023-02-13T18:10:36.327Z,5.81
2023-02-13T18:13:06.691Z,6.24
2023-02-13T18:15:35.493Z,6.31
2023-02-13T18:18:02.285Z,5.99
2023-02-13T18:20:28.970Z,6.18
2023-02-13T18:22:55.701Z,6.17
2023-02-13T18:25:23.712Z,6.14
2023-02-13T18:27:50.568Z,6.04
2023-02-13T18:30:19.339Z,6.22
2023-02-13T18:32:50.500Z,5.97
2023-02-13T18:35:18.984Z,5.73
2023-02-13T18:37:45.825Z,6.06
2023-02-13T18:40:15.121Z,5.70
2023-02-13T18:42:41.878Z,5.97
2023-02-13T18:45:09.648Z,5.60
2023-02-13T18:47:36.533Z,5.62
2023-02-13T18:50:03.724Z,5.85
2023-02-13T18:52:30.527Z,5.65
2023-02-13T18:54:57.322Z,5.64
2023-02-13T18:57:24.001Z,5.70
2023-02-13T18:59:51.598Z,5.80
2023-02-13T19:02:18.319Z,5.30
2023-02-13T19:04:45.018Z,5.92
2023-02-13T19:07:11.773Z,5.69
2023-02-13T19:09:40.512Z,5.79
2023-02-13T19:12:08.179Z,5.52
2023-02-13T19:14:34.996Z,5.70
2023-02-13T19:17:01.787Z,5.58
2023-02-13T19:19:28.499Z,5.35
2023-02-13T19:21:55.266Z,5.56
2023-02-13T19:24:21.967Z,5.60
2023-02-13T19:26:48.638Z,5.16
2023-02-13T19:29:15.346Z,5.16
2023-02-13T19:31:42.182Z,5.22
2023-02-13T19:34:08.916Z,5.28
2023-02-13T19:36:35.623Z,5.39
2023-02-13T19:39:06.278Z,5.16
2023-02-13T19:41:33.278Z,5.28
2023-02-13T19:44:01.152Z,5.10
2023-02-13T19:46:31.001Z,5.36
2023-02-13T19:48:58.316Z,5.24
2023-02-13T19:51:27.958Z,5.33
2023-02-13T19:54:00.403Z,5.17
2023-02-13T19:56:28.660Z,5.18
2023-02-13T19:58:58.416Z,5.23
2023-02-13T20:01:27.201Z,5.33
2023-02-13T20:03:54.947Z,5.22
2023-02-13T20:06:24.540Z,5.15
2023-02-13T20:08:51.870Z,5.08
2023-02-13T20:11:19.956Z,5.06
2023-02-13T20:13:47.768Z,5.01
2023-02-13T20:16:16.932Z,4.93
2023-02-13T20:18:43.685Z,4.93
2023-02-13T20:21:13.462Z,5.19
2023-02-13T20:23:41.335Z,5.13
2023-02-13T20:26:11.359Z,5.03
2023-02-13T20:28:38.461Z,5.17
2023-02-13T20:31:20.143Z,5.19
2023-02-13T20:33:48.704Z,5.12
2023-02-13T20:36:30.162Z,5.13
2023-02-13T20:38:59.890Z,5.18
2023-02-13T20:41:29.097Z,4.92
2023-02-13T20:44:00.469Z,5.18
2023-02-13T20:46:30.177Z,5.12
2023-02-13T20:48:56.850Z,5.26
2023-02-13T20:51:23.569Z,5.11
2023-02-13T20:53:50.395Z,4.93
2023-02-13T20:56:19.506Z,4.79
2023-02-13T20:58:48.958Z,5.08
2023-02-13T21:01:18.896Z,4.86
2023-02-13T21:03:54.846Z,5.01
2023-02-13T21:06:28.369Z,4.72
2023-02-13T21:08:55.961Z,4.88
2023-02-13T21:11:25.908Z,5.02
2023-02-13T21:13:53.093Z,4.82
2023-02-13T21:16:24.767Z,5.03
2023-02-13T21:18:56.902Z,4.88
2023-02-13T21:21:27.703Z,4.95
2023-02-13T21:23:57.691Z,4.89
2023-02-13T21:26:27.682Z,4.92
2023-02-13T21:28:57.186Z,4.85
2023-02-13T21:31:29.596Z,4.83
2023-02-13T21:34:07.871Z,4.80
2023-02-13T21:36:37.327Z,4.73
2023-02-13T21:39:09.194Z,4.78
2023-02-13T21:41:37.675Z,4.50
2023-02-13T21:44:04.590Z,4.57
2023-02-13T21:46:33.224Z,4.79
2023-02-13T21:49:05.471Z,4.40
2023-02-13T21:51:34.133Z,4.64
2023-02-13T21:54:02.028Z,4.59
2023-02-13T21:56:31.771Z,4.56
2023-02-13T21:58:59.072Z,4.45
2023-02-13T22:01:37.229Z,4.47
2023-02-13T22:04:06.767Z,4.55
2023-02-13T22:06:35.466Z,4.20
2023-02-13T22:09:08.274Z,4.48
2023-02-13T22:11:36.312Z,4.52
2023-02-13T22:14:05.640Z,4.29
2023-02-13T22:16:34.862Z,4.24
2023-02-13T22:19:02.460Z,4.32
2023-02-13T22:21:31.052Z,4.23
2023-02-13T22:23:58.248Z,4.41
2023-02-13T22:26:28.125Z,4.29
2023-02-13T22:28:58.457Z,4.42
2023-02-13T22:31:26.056Z,4.35
2023-02-13T22:34:03.458Z,4.33
2023-02-13T22:36:39.106Z,4.33
2023-02-13T22:39:08.242Z,4.38
2023-02-13T22:41:35.022Z,4.29
2023-02-13T22:44:01.773Z,4.36
2023-02-13T22:46:31.144Z,4.37
2023-02-13T22:48:58.708Z,4.38
2023-02-13T22:51:29.897Z,4.45
2023-02-13T22:53:57.771Z,4.39
2023-02-13T22:56:26.944Z,4.16
2023-02-13T22:58:54.120Z,4.00
2023-02-13T23:01:22.901Z,4.41
2023-02-13T23:03:50.921Z,4.31
2023-02-13T23:06:18.512Z,4.21
2023-02-13T23:08:45.748Z,4.32
2023-02-13T23:11:35.609Z,4.29
2023-02-13T23:14:04.479Z,4.09
2023-02-13T23:16:54.725Z,4.24
2023-02-13T23:19:21.987Z,4.24
2023-02-13T23:21:49.346Z,4.25
2023-02-13T23:24:16.208Z,4.07
2023-02-13T23:26:43.290Z,4.12
2023-02-13T23:29:10.927Z,4.14
2023-02-13T23:31:38.135Z,3.91
2023-02-13T23:34:04.949Z,3.82
2023-02-13T23:36:31.717Z,4.10
2023-02-13T23:38:58.414Z,4.08
2023-02-13T23:41:25.175Z,4.09
2023-02-13T23:43:51.852Z,4.10
2023-02-13T23:46:18.658Z,3.98
2023-02-13T23:48:46.224Z,4.06
2023-02-13T23:51:13.867Z,4.00
2023-02-13T23:53:40.592Z,4.08
2023-02-13T23:56:07.597Z,4.11
2023-02-13T23:58:34.456Z,4.09
